Time;durP1;ratioP1;P1;durP2;ratioP2;P2;SDS_P1;SDS_P2;PMS_P1;PMS_P2;Temp;Humidity;BMP_temperature;BMP_pressure;BME280_temperature;BME280_humidity;BME280_pressure;Samples;Min_cycle;Max_cycle;Signal;HPM_P1;HPM_P2
2021/08/12 00:02:24;;;;;;;8.32;4.40;;;17.30;84.90;;;;;;4980799;28;20042;-67
2021/08/12 00:04:51;;;;;;;7.25;4.05;;;17.30;85.20;;;;;;4979103;28;20034;-68
2021/08/12 00:07:16;;;;;;;7.78;4.45;;;17.20;85.30;;;;;;4979798;28;20126;-67
2021/08/12 00:09:42;;;;;;;5.80;3.78;;;17.20;85.40;;;;;;4974993;28;20449;-68
2021/08/12 00:12:08;;;;;;;6.38;3.90;;;17.10;86.40;;;;;;4978595;28;20034;-68
2021/08/12 00:14:33;;;;;;;5.60;4.22;;;17.10;86.50;;;;;;4978483;28;20443;-68
2021/08/12 00:16:59;;;;;;;6.18;3.90;;;17.00;87.00;;;;;;4980057;28;20038;-67
2021/08/12 00:19:25;;;;;;;7.15;4.00;;;17.00;86.80;;;;;;4976431;28;20411;-68
2021/08/12 00:21:50;;;;;;;5.82;3.60;;;17.10;85.70;;;;;;4977044;28;20046;-68
2021/08/12 00:24:21;;;;;;;8.13;3.35;;;17.10;85.40;;;;;;4978634;28;20022;-67
2021/08/12 00:26:48;;;;;;;3.58;2.80;;;17.10;84.10;;;;;;4977144;28;20022;-67
2021/08/12 00:29:13;;;;;;;4.57;2.78;;;16.90;84.30;;;;;;4978449;28;20124;-67
2021/08/12 00:31:39;;;;;;;2.47;2.28;;;16.80;84.80;;;;;;4976777;28;21171;-67
2021/08/12 00:34:04;;;;;;;2.30;2.10;;;16.80;85.00;;;;;;4974797;28;20038;-68
2021/08/12 00:36:30;;;;;;;6.03;2.90;;;16.80;84.90;;;;;;4977144;28;20479;-68
2021/08/12 00:38:56;;;;;;;7.35;2.90;;;16.80;85.40;;;;;;4975075;28;20030;-68
2021/08/12 00:41:22;;;;;;;4.68;3.28;;;16.80;85.60;;;;;;4975011;28;20375;-68
2021/08/12 00:43:47;;;;;;;5.85;3.30;;;16.70;86.00;;;;;;4978580;28;20495;-68
2021/08/12 00:46:13;;;;;;;5.55;3.35;;;16.60;86.10;;;;;;4972462;28;20061;-68
2021/08/12 00:48:39;;;;;;;4.30;3.00;;;16.70;86.10;;;;;;4974178;28;20085;-68
2021/08/12 00:51:05;;;;;;;3.85;3.45;;;16.60;86.20;;;;;;4977353;28;20113;-68
2021/08/12 00:53:32;;;;;;;4.80;4.03;;;16.60;86.30;;;;;;4977089;28;20027;-68
2021/08/12 00:55:57;;;;;;;5.18;3.13;;;16.70;86.10;;;;;;4975883;28;20026;-68
2021/08/12 00:58:23;;;;;;;3.50;3.00;;;16.60;86.00;;;;;;4978398;28;20039;-68
2021/08/12 01:00:51;;;;;;;5.25;3.25;;;16.60;85.70;;;;;;4979821;28;20053;-67
2021/08/12 01:03:18;;;;;;;3.10;2.50;;;16.60;86.00;;;;;;4978429;28;20034;-68
2021/08/12 01:05:52;;;;;;;2.63;2.20;;;16.50;86.00;;;;;;4979726;28;20585;-67
2021/08/12 01:08:36;;;;;;;4.43;2.90;;;16.50;85.60;;;;;;4986735;28;20034;-68
2021/08/12 01:11:32;;;;;;;5.72;2.80;;;16.50;85.80;;;;;;4985742;28;20037;-67
2021/08/12 01:14:01;;;;;;;5.07;3.03;;;16.50;85.30;;;;;;4988367;28;20030;-67
2021/08/12 01:16:34;;;;;;;3.85;3.10;;;16.50;85.40;;;;;;4990015;28;20667;-67
2021/08/12 01:19:13;;;;;;;4.07;3.58;;;16.50;85.70;;;;;;4989266;28;20037;-67
2021/08/12 01:21:51;;;;;;;4.55;2.78;;;16.40;86.80;;;;;;5005050;28;20487;-68
2021/08/12 01:24:17;;;;;;;9.38;3.58;;;16.40;86.10;;;;;;4981697;28;21066;-68
2021/08/12 01:26:44;;;;;;;5.20;3.67;;;16.40;87.60;;;;;;4991935;28;20702;-68
2021/08/12 01:29:18;;;;;;;5.43;3.63;;;16.30;88.10;;;;;;4987491;28;20035;-68
2021/08/12 01:31:54;;;;;;;5.18;3.67;;;16.20;89.20;;;;;;4982941;28;20038;-68
2021/08/12 01:34:42;;;;;;;4.85;3.40;;;16.10;89.20;;;;;;4991509;28;20482;-68
2021/08/12 01:37:11;;;;;;;3.70;3.05;;;16.10;88.80;;;;;;4987793;28;20434;-69
2021/08/12 01:39:38;;;;;;;6.25;3.25;;;16.00;89.00;;;;;;4989092;28;20030;-68
2021/08/12 01:42:05;;;;;;;3.55;2.83;;;16.10;88.80;;;;;;5000442;28;20030;-68
2021/08/12 01:44:32;;;;;;;3.23;2.93;;;16.10;88.50;;;;;;4985814;28;20093;-68
2021/08/12 01:46:59;;;;;;;3.78;2.97;;;16.20;87.80;;;;;;4988550;28;20030;-67
2021/08/12 01:49:26;;;;;;;5.45;3.03;;;16.30;87.30;;;;;;4988823;28;21618;-68
2021/08/12 01:51:52;;;;;;;4.15;3.38;;;16.30;87.80;;;;;;4987240;28;20325;-68
2021/08/12 01:54:18;;;;;;;4.72;3.15;;;16.30;87.10;;;;;;4989547;28;20019;-68
2021/08/12 01:56:45;;;;;;;3.83;2.70;;;16.30;86.60;;;;;;4986323;28;20038;-68
2021/08/12 01:59:15;;;;;;;2.38;2.13;;;16.30;86.00;;;;;;4992236;28;20045;-68
2021/08/12 02:01:46;;;;;;;2.45;1.90;;;16.20;85.00;;;;;;4982996;28;20982;-68
2021/08/12 02:04:13;;;;;;;3.05;2.63;;;16.10;85.00;;;;;;4983251;28;20030;-68
2021/08/12 02:06:39;;;;;;;4.78;2.67;;;16.10;85.70;;;;;;4984487;28;20030;-68
2021/08/12 02:09:04;;;;;;;2.78;2.00;;;16.10;85.80;;;;;;4982572;28;20462;-69
2021/08/12 02:11:33;;;;;;;2.35;1.90;;;16.10;85.10;;;;;;4985815;28;20358;-67
2021/08/12 02:13:59;;;;;;;4.50;2.45;;;16.00;84.90;;;;;;4987375;28;20022;-67
2021/08/12 02:16:25;;;;;;;3.15;2.58;;;16.00;85.60;;;;;;4985511;28;20029;-67
2021/08/12 02:18:50;;;;;;;5.10;2.70;;;16.00;85.40;;;;;;4983516;28;20022;-68
2021/08/12 02:21:22;;;;;;;3.83;2.30;;;16.00;86.20;;;;;;4981837;28;20506;-68
2021/08/12 02:24:20;;;;;;;3.40;2.35;;;15.90;86.60;;;;;;4998294;28;20027;-67
2021/08/12 02:26:56;;;;;;;5.30;3.25;;;15.80;87.10;;;;;;5001809;28;20030;-69
2021/08/12 02:29:21;;;;;;;4.25;2.92;;;15.80;87.40;;;;;;4984282;28;20034;-68
2021/08/12 02:31:48;;;;;;;5.38;2.65;;;15.80;87.20;;;;;;4979650;28;20034;-68
2021/08/12 02:34:16;;;;;;;3.47;2.85;;;15.80;86.80;;;;;;4979833;28;20074;-68
2021/08/12 02:36:43;;;;;;;3.20;2.50;;;15.80;87.50;;;;;;4984877;28;20037;-68
2021/08/12 02:39:11;;;;;;;3.55;2.63;;;15.70;87.90;;;;;;4982252;28;20077;-68
2021/08/12 02:41:37;;;;;;;3.45;2.53;;;15.70;87.80;;;;;;4978609;28;20030;-68
2021/08/12 02:44:03;;;;;;;2.47;2.28;;;15.60;88.30;;;;;;4979915;28;20512;-68
2021/08/12 02:46:30;;;;;;;3.20;2.58;;;15.60;88.50;;;;;;4981788;28;20073;-68
2021/08/12 02:48:57;;;;;;;4.10;2.80;;;15.50;88.90;;;;;;4978126;28;20242;-68
2021/08/12 02:51:25;;;;;;;4.00;2.78;;;15.40;88.40;;;;;;4982852;28;20026;-68
2021/08/12 02:53:51;;;;;;;5.32;3.22;;;15.40;88.80;;;;;;4980466;28;20058;-68
2021/08/12 02:56:17;;;;;;;4.78;3.17;;;15.40;89.30;;;;;;4984485;28;20034;-68
2021/08/12 02:58:44;;;;;;;4.25;3.22;;;15.40;89.10;;;;;;4981523;28;20056;-67
2021/08/12 03:01:11;;;;;;;3.17;2.65;;;15.30;89.60;;;;;;4981948;28;20134;-67
2021/08/12 03:03:41;;;;;;;3.80;2.50;;;15.30;89.50;;;;;;4989125;28;20015;-67
2021/08/12 03:06:10;;;;;;;5.22;3.33;;;15.40;89.10;;;;;;4987476;28;20057;-67
2021/08/12 03:08:39;;;;;;;3.03;2.72;;;15.40;88.40;;;;;;4991835;28;20030;-69
2021/08/12 03:11:07;;;;;;;2.60;2.40;;;15.50;88.00;;;;;;4985287;28;20117;-68
2021/08/12 03:13:35;;;;;;;2.25;1.85;;;15.40;86.10;;;;;;4980321;28;20023;-68
2021/08/12 03:16:03;;;;;;;4.05;2.40;;;15.30;85.30;;;;;;4978635;28;20109;-68
2021/08/12 03:18:31;;;;;;;4.22;1.70;;;15.30;85.60;;;;;;4981811;28;20037;-68
2021/08/12 03:20:57;;;;;;;3.00;2.33;;;15.20;87.10;;;;;;4990566;28;20540;-68
2021/08/12 03:23:22;;;;;;;2.10;1.90;;;15.20;87.40;;;;;;4984372;28;20039;-68
2021/08/12 03:25:48;;;;;;;1.60;1.50;;;15.20;87.20;;;;;;4980529;28;20030;-68
2021/08/12 03:28:13;;;;;;;2.97;1.38;;;15.20;86.20;;;;;;4985288;28;20034;-68
2021/08/12 03:30:39;;;;;;;3.88;2.33;;;15.10;85.80;;;;;;4980418;28;20200;-68
2021/08/12 03:33:05;;;;;;;4.30;2.95;;;14.90;87.80;;;;;;4979628;28;20057;-68
2021/08/12 03:35:30;;;;;;;3.13;2.55;;;14.90;90.00;;;;;;4984563;28;20031;-68
2021/08/12 03:37:56;;;;;;;4.28;2.50;;;15.10;89.10;;;;;;5004185;28;20030;-68
2021/08/12 03:40:22;;;;;;;3.45;2.65;;;15.10;87.90;;;;;;4985193;28;20076;-68
2021/08/12 03:42:48;;;;;;;3.92;3.47;;;15.10;87.90;;;;;;4979626;28;20061;-68
2021/08/12 03:45:13;;;;;;;3.15;2.83;;;15.10;88.10;;;;;;4981535;28;20034;-68
2021/08/12 03:47:39;;;;;;;3.17;2.55;;;15.10;89.00;;;;;;4981915;28;20491;-68
2021/08/12 03:50:05;;;;;;;2.40;2.20;;;15.20;88.30;;;;;;4981133;28;20070;-68
2021/08/12 03:52:30;;;;;;;2.20;2.00;;;15.10;87.80;;;;;;4989688;28;20101;-68
2021/08/12 03:54:56;;;;;;;4.30;2.30;;;15.10;86.70;;;;;;4981556;28;21045;-68
2021/08/12 03:57:21;;;;;;;3.88;1.88;;;15.10;86.60;;;;;;4980912;28;20776;-68
2021/08/12 03:59:47;;;;;;;2.38;2.00;;;15.10;86.20;;;;;;4982172;28;20030;-68
2021/08/12 04:02:13;;;;;;;1.75;1.65;;;14.90;87.10;;;;;;4982631;28;20085;-67
2021/08/12 04:04:38;;;;;;;2.45;1.58;;;14.90;87.70;;;;;;4980125;28;20050;-68
2021/08/12 04:07:04;;;;;;;2.88;1.70;;;14.90;87.30;;;;;;4979563;28;20387;-68
2021/08/12 04:09:30;;;;;;;2.35;1.58;;;14.80;86.90;;;;;;4978389;28;20045;-68
2021/08/12 04:11:56;;;;;;;1.75;1.65;;;14.70;87.50;;;;;;4979328;28;20038;-67
2021/08/12 04:14:24;;;;;;;2.38;2.00;;;14.70;87.80;;;;;;4982339;28;20101;-67
2021/08/12 04:16:52;;;;;;;2.03;1.92;;;14.80;87.70;;;;;;4984178;28;20438;-67
2021/08/12 04:19:18;;;;;;;3.17;2.85;;;14.90;87.70;;;;;;4979421;28;20029;-67
2021/08/12 04:21:43;;;;;;;3.70;2.60;;;14.80;89.30;;;;;;4979965;28;20038;-67
2021/08/12 04:24:09;;;;;;;3.65;2.72;;;14.80;88.90;;;;;;4981440;28;20045;-68
2021/08/12 04:26:35;;;;;;;3.13;2.50;;;14.80;89.10;;;;;;4980231;28;20022;-68
2021/08/12 04:29:00;;;;;;;2.75;2.53;;;14.90;88.60;;;;;;4982336;28;20125;-68
2021/08/12 04:31:26;;;;;;;2.70;2.35;;;14.90;88.00;;;;;;4974127;28;20058;-68
2021/08/12 04:33:51;;;;;;;2.83;2.47;;;14.90;88.50;;;;;;4977331;28;20038;-69
2021/08/12 04:36:17;;;;;;;1.77;1.67;;;14.90;87.80;;;;;;4982901;28;20027;-67
2021/08/12 04:38:43;;;;;;;4.50;1.67;;;14.90;87.40;;;;;;4981528;28;20049;-69
2021/08/12 04:41:09;;;;;;;2.70;2.35;;;14.90;87.50;;;;;;4977605;28;20069;-68
2021/08/12 04:43:35;;;;;;;3.88;2.40;;;14.90;88.00;;;;;;4982588;28;20034;-68
2021/08/12 04:46:01;;;;;;;3.63;2.85;;;15.00;88.10;;;;;;4982878;28;20082;-67
2021/08/12 04:48:26;;;;;;;5.78;2.63;;;15.00;88.90;;;;;;4997777;28;20030;-68
2021/08/12 04:50:52;;;;;;;9.00;2.75;;;15.00;88.90;;;;;;4993763;28;20080;-68
2021/08/12 04:53:18;;;;;;;4.05;2.55;;;15.00;88.60;;;;;;4980773;28;20340;-68
2021/08/12 04:55:43;;;;;;;4.47;2.85;;;15.10;88.40;;;;;;4981264;28;20101;-68
2021/08/12 04:58:09;;;;;;;6.07;3.00;;;15.10;88.50;;;;;;4980568;28;20026;-68
2021/08/12 05:00:35;;;;;;;3.35;2.67;;;15.10;88.90;;;;;;4976809;28;20042;-69
2021/08/12 05:03:01;;;;;;;3.08;2.65;;;15.10;88.80;;;;;;4984152;28;20687;-68
2021/08/12 05:05:26;;;;;;;3.03;2.70;;;15.20;89.20;;;;;;4982923;28;20030;-67
2021/08/12 05:07:52;;;;;;;3.03;2.63;;;15.10;89.80;;;;;;4988311;28;20048;-67
2021/08/12 05:10:18;;;;;;;3.67;2.90;;;15.10;90.10;;;;;;4988203;28;20030;-67
2021/08/12 05:12:43;;;;;;;3.13;2.50;;;15.20;90.50;;;;;;4982487;28;20052;-68
2021/08/12 05:15:09;;;;;;;7.03;2.78;;;15.30;89.70;;;;;;4985854;28;21535;-67
2021/08/12 05:17:35;;;;;;;5.75;2.85;;;15.30;89.60;;;;;;5003118;28;20463;-68
2021/08/12 05:20:01;;;;;;;3.50;3.13;;;15.40;90.00;;;;;;4985295;28;20030;-68
2021/08/12 05:22:27;;;;;;;5.63;3.67;;;15.40;90.10;;;;;;4981809;28;20034;-68
2021/08/12 05:24:52;;;;;;;6.05;3.58;;;15.40;90.10;;;;;;4975929;28;20034;-68
2021/08/12 05:27:18;;;;;;;6.65;3.50;;;15.50;90.30;;;;;;4977908;28;20041;-68
2021/08/12 05:29:44;;;;;;;5.13;3.40;;;15.50;90.30;;;;;;4974037;28;20045;-68
2021/08/12 05:32:10;;;;;;;7.88;3.83;;;15.60;90.40;;;;;;4977703;28;20041;-68
2021/08/12 05:34:36;;;;;;;5.18;4.00;;;15.60;90.60;;;;;;4980073;28;20467;-68
2021/08/12 05:37:01;;;;;;;5.85;3.50;;;15.70;90.40;;;;;;4980147;28;20117;-68
2021/08/12 05:39:27;;;;;;;7.60;4.10;;;15.80;90.50;;;;;;4981723;28;20038;-68
2021/08/12 05:41:53;;;;;;;4.85;3.38;;;15.90;90.50;;;;;;4983181;28;20036;-68
2021/08/12 05:44:19;;;;;;;9.57;4.45;;;16.00;90.30;;;;;;4982345;28;20038;-68
2021/08/12 05:46:44;;;;;;;7.57;3.67;;;16.00;90.60;;;;;;4981118;28;20077;-68
2021/08/12 05:49:11;;;;;;;8.80;4.05;;;16.10;90.20;;;;;;4982455;28;20038;-68
2021/08/12 05:51:38;;;;;;;5.35;3.72;;;16.20;90.20;;;;;;4995333;28;20022;-68
2021/08/12 05:54:04;;;;;;;6.60;4.03;;;16.30;90.50;;;;;;4982475;28;20744;-68
2021/08/12 05:56:30;;;;;;;6.97;4.43;;;16.40;90.40;;;;;;4983999;28;20049;-68
2021/08/12 05:58:55;;;;;;;4.55;3.90;;;16.50;90.50;;;;;;5000782;28;20484;-68
2021/08/12 06:01:21;;;;;;;7.45;4.20;;;16.50;90.60;;;;;;4987790;28;20177;-69
2021/08/12 06:03:47;;;;;;;5.93;4.13;;;16.60;90.40;;;;;;4979682;28;20400;-68
2021/08/12 06:06:14;;;;;;;5.35;4.20;;;16.70;90.30;;;;;;4982203;28;20038;-68
2021/08/12 06:08:40;;;;;;;8.80;4.93;;;16.80;90.00;;;;;;4998975;28;20036;-68
2021/08/12 06:11:05;;;;;;;5.13;4.47;;;16.90;90.50;;;;;;4986796;28;20038;-68
2021/08/12 06:13:31;;;;;;;9.02;5.05;;;17.00;90.40;;;;;;4983106;28;20466;-68
2021/08/12 06:15:59;;;;;;;8.13;5.15;;;17.10;90.30;;;;;;4985276;28;20034;-68
2021/08/12 06:18:24;;;;;;;8.60;4.80;;;17.20;90.30;;;;;;4982573;28;21475;-68
2021/08/12 06:20:50;;;;;;;8.68;5.53;;;17.30;90.40;;;;;;4987457;28;20045;-68
2021/08/12 06:23:16;;;;;;;8.93;5.85;;;17.40;90.40;;;;;;4999281;28;20149;-68
2021/08/12 06:25:42;;;;;;;8.88;5.57;;;17.50;90.50;;;;;;4981630;28;20117;-68
2021/08/12 06:28:09;;;;;;;7.97;5.55;;;17.60;90.60;;;;;;4985825;28;20112;-68
2021/08/12 06:30:35;;;;;;;7.85;5.72;;;17.70;90.20;;;;;;4981553;28;20046;-68
2021/08/12 06:33:01;;;;;;;10.10;5.85;;;17.80;90.60;;;;;;4986162;28;20076;-68
2021/08/12 06:35:31;;;;;;;10.82;6.05;;;17.80;90.00;;;;;;4984631;28;20406;-68
2021/08/12 06:37:56;;;;;;;8.65;6.60;;;17.90;90.20;;;;;;4987120;28;20034;-68
2021/08/12 06:40:23;;;;;;;9.88;5.88;;;17.90;90.00;;;;;;4984107;28;20030;-68
2021/08/12 06:42:50;;;;;;;8.27;6.20;;;18.00;89.70;;;;;;4984431;28;20173;-68
2021/08/12 06:45:19;;;;;;;10.25;5.90;;;18.10;90.00;;;;;;4986917;28;20041;-68
2021/08/12 06:47:44;;;;;;;11.13;6.57;;;18.20;90.00;;;;;;4985018;28;20069;-68
2021/08/12 06:50:12;;;;;;;9.57;5.60;;;18.20;90.00;;;;;;5001264;28;20523;-68
2021/08/12 06:52:38;;;;;;;8.65;4.85;;;18.30;90.00;;;;;;4985757;28;20045;-68
2021/08/12 06:55:04;;;;;;;9.85;5.28;;;18.40;88.80;;;;;;4988947;28;20038;-68
2021/08/12 06:57:29;;;;;;;9.23;5.55;;;18.60;87.70;;;;;;4984237;28;20022;-68
2021/08/12 06:59:55;;;;;;;8.02;5.53;;;18.70;86.80;;;;;;4983682;28;20055;-68
2021/08/12 07:02:21;;;;;;;6.57;4.93;;;18.80;86.80;;;;;;4990788;28;20057;-68
2021/08/12 07:04:47;;;;;;;8.23;5.15;;;18.80;86.80;;;;;;4990061;28;20487;-68
2021/08/12 07:07:13;;;;;;;7.70;5.50;;;19.00;87.60;;;;;;4987512;28;20026;-68
2021/08/12 07:09:38;;;;;;;8.77;5.53;;;19.10;87.60;;;;;;4987883;28;20030;-68
2021/08/12 07:12:05;;;;;;;9.32;5.85;;;19.20;87.50;;;;;;4987944;28;20033;-68
2021/08/12 07:14:30;;;;;;;8.27;5.50;;;19.40;87.60;;;;;;4988550;28;20022;-69
2021/08/12 07:16:57;;;;;;;11.60;5.65;;;19.60;88.10;;;;;;4986993;28;20046;-68
2021/08/12 07:19:23;;;;;;;7.72;5.30;;;19.70;86.00;;;;;;5003821;28;20038;-68
2021/08/12 07:21:51;;;;;;;8.48;5.80;;;19.80;86.40;;;;;;4983400;28;20037;-68
2021/08/12 07:24:16;;;;;;;10.52;6.18;;;19.90;86.60;;;;;;5006588;28;20041;-68
2021/08/12 07:26:43;;;;;;;9.23;5.40;;;19.90;85.30;;;;;;4991388;28;20022;-68
2021/08/12 07:29:09;;;;;;;8.07;5.28;;;19.90;84.00;;;;;;4989444;28;20030;-68
2021/08/12 07:31:34;;;;;;;7.40;5.60;;;19.90;84.50;;;;;;4987945;28;20485;-68
2021/08/12 07:34:00;;;;;;;9.10;5.50;;;20.00;85.60;;;;;;4988721;28;20027;-68
2021/08/12 07:36:26;;;;;;;9.85;5.65;;;20.00;86.00;;;;;;4989391;28;20085;-68
2021/08/12 07:38:51;;;;;;;10.30;6.35;;;20.10;85.10;;;;;;4984505;28;20037;-68
2021/08/12 07:41:18;;;;;;;9.02;5.75;;;20.10;84.30;;;;;;4984893;28;20156;-68
2021/08/12 07:43:44;;;;;;;11.23;5.63;;;20.30;84.60;;;;;;4991565;28;20062;-68
2021/08/12 07:46:09;;;;;;;8.20;5.85;;;20.40;83.70;;;;;;4984688;28;20164;-68
2021/08/12 07:48:36;;;;;;;12.55;7.10;;;20.60;83.80;;;;;;4986161;28;20053;-68
2021/08/12 07:51:02;;;;;;;7.90;6.03;;;20.60;82.00;;;;;;4985889;28;20030;-69
2021/08/12 07:53:28;;;;;;;9.88;6.22;;;20.70;81.60;;;;;;4983501;28;20021;-69
2021/08/12 07:55:56;;;;;;;11.90;6.60;;;20.90;82.80;;;;;;4989352;28;20046;-68
2021/08/12 07:58:22;;;;;;;10.38;6.03;;;21.00;81.80;;;;;;4989437;28;20487;-68
2021/08/12 08:00:48;;;;;;;8.88;5.63;;;21.20;81.90;;;;;;4977761;28;20049;-69
2021/08/12 08:03:13;;;;;;;11.27;5.80;;;21.30;80.50;;;;;;4976034;28;20079;-68
2021/08/12 08:05:39;;;;;;;8.88;5.95;;;21.30;79.90;;;;;;4977291;28;21155;-69
2021/08/12 08:08:05;;;;;;;9.48;6.40;;;21.40;81.10;;;;;;4978053;28;20026;-69
2021/08/12 08:10:30;;;;;;;8.35;5.88;;;21.50;80.50;;;;;;4979050;28;20759;-69
2021/08/12 08:12:56;;;;;;;10.18;6.38;;;21.60;79.30;;;;;;4977738;28;20026;-69
2021/08/12 08:15:22;;;;;;;8.75;6.10;;;21.70;79.00;;;;;;4980805;28;20034;-69
2021/08/12 08:17:48;;;;;;;10.35;6.22;;;21.90;79.60;;;;;;4977118;28;20081;-68
2021/08/12 08:20:14;;;;;;;8.32;5.60;;;21.90;78.40;;;;;;4976647;28;20419;-68
2021/08/12 08:22:40;;;;;;;10.85;6.35;;;22.00;78.20;;;;;;4977547;28;20053;-69
2021/08/12 08:25:07;;;;;;;9.95;6.55;;;22.00;77.50;;;;;;4978439;28;20140;-69
2021/08/12 08:27:33;;;;;;;10.10;5.53;;;22.20;79.60;;;;;;4979904;28;20045;-69
2021/08/12 08:29:59;;;;;;;11.82;5.82;;;22.40;78.20;;;;;;4977976;28;20033;-69
2021/08/12 08:32:26;;;;;;;11.73;6.13;;;22.50;77.60;;;;;;4976653;28;20042;-69
2021/08/12 08:34:55;;;;;;;8.77;6.03;;;22.60;76.70;;;;;;4980421;28;20037;-69
2021/08/12 08:37:21;;;;;;;9.35;4.82;;;22.70;76.10;;;;;;4979529;28;20041;-69
2021/08/12 08:39:47;;;;;;;9.60;5.38;;;22.90;77.80;;;;;;4978483;28;20018;-69
2021/08/12 08:42:13;;;;;;;11.57;5.72;;;23.00;76.10;;;;;;4978966;28;21665;-69
2021/08/12 08:44:42;;;;;;;9.23;5.25;;;23.10;73.70;;;;;;4978755;28;22916;-69
2021/08/12 08:47:10;;;;;;;8.75;5.65;;;23.30;74.50;;;;;;4977464;28;20034;-68
2021/08/12 08:49:41;;;;;;;8.57;5.38;;;23.40;72.80;;;;;;4977410;28;20109;-68
2021/08/12 08:52:10;;;;;;;8.65;5.15;;;23.40;71.30;;;;;;4980612;28;20027;-69
2021/08/12 08:54:38;;;;;;;8.02;5.45;;;23.50;71.30;;;;;;4976826;28;20123;-69
2021/08/12 08:57:04;;;;;;;;;;;23.70;73.50;;;;;;4979098;28;20041;-69
2021/08/12 08:59:34;;;;;;;10.43;5.30;;;23.80;70.40;;;;;;4980381;28;19976;-69
2021/08/12 09:02:04;;;;;;;8.20;5.55;;;23.90;72.30;;;;;;4966370;28;20042;-69
2021/08/12 09:04:35;;;;;;;6.90;4.85;;;24.00;67.30;;;;;;4984010;28;20111;-69
2021/08/12 09:07:07;;;;;;;11.63;5.53;;;24.00;68.90;;;;;;4981548;28;20027;-70
2021/08/12 09:09:34;;;;;;;7.72;5.50;;;24.00;67.10;;;;;;4988602;28;20038;-69
2021/08/12 09:12:00;;;;;;;8.48;5.60;;;24.10;67.00;;;;;;4984321;28;20026;-69
2021/08/12 09:14:40;;;;;;;8.27;5.40;;;24.10;67.70;;;;;;4990285;28;20022;-69
2021/08/12 09:17:18;;;;;;;7.68;5.53;;;24.10;70.30;;;;;;4989969;28;20034;-69
2021/08/12 09:20:01;;;;;;;7.43;5.35;;;24.10;67.40;;;;;;4988762;28;20041;-68
2021/08/12 09:22:28;;;;;;;6.35;5.25;;;24.10;68.40;;;;;;4986196;28;20034;-69
2021/08/12 09:24:54;;;;;;;10.48;5.32;;;24.10;68.30;;;;;;4988546;28;20034;-69
2021/08/12 09:27:24;;;;;;;7.93;5.03;;;24.20;67.30;;;;;;4987620;28;20030;-69
2021/08/12 09:30:07;;;;;;;7.75;5.50;;;24.40;65.30;;;;;;4990689;28;20058;-68
2021/08/12 09:32:49;;;;;;;8.45;5.15;;;24.60;69.90;;;;;;4985934;28;20034;-68
2021/08/12 09:35:26;;;;;;;9.65;5.50;;;24.80;67.60;;;;;;4992766;28;20041;-69
2021/08/12 09:37:52;;;;;;;12.73;6.65;;;24.80;65.00;;;;;;4989607;28;20022;-69
2021/08/12 09:40:26;;;;;;;11.10;6.82;;;24.90;65.60;;;;;;4993956;28;20030;-69
2021/08/12 09:43:01;;;;;;;8.40;5.78;;;25.00;65.70;;;;;;4989967;28;20034;-69
2021/08/12 09:45:28;;;;;;;11.02;5.43;;;25.20;62.70;;;;;;4992555;28;20034;-69
2021/08/12 09:47:55;;;;;;;6.88;5.15;;;25.20;62.30;;;;;;4992497;28;20215;-68
2021/08/12 09:50:34;;;;;;;6.13;5.00;;;25.30;66.50;;;;;;4993726;28;20038;-69
2021/08/12 09:53:00;;;;;;;7.80;5.90;;;25.30;64.40;;;;;;4993845;28;20022;-68
2021/08/12 09:55:26;;;;;;;7.15;4.80;;;25.40;62.40;;;;;;4993660;28;20041;-69
2021/08/12 09:58:11;;;;;;;9.45;5.78;;;25.40;62.10;;;;;;5008420;28;20034;-68
2021/08/12 10:00:44;;;;;;;7.47;5.18;;;25.60;63.10;;;;;;4982942;28;20047;-68
2021/08/12 10:03:25;;;;;;;8.63;5.50;;;25.60;61.60;;;;;;4979748;28;20034;-69
2021/08/12 10:05:53;;;;;;;8.35;5.47;;;25.50;61.40;;;;;;4980133;28;20046;-68
2021/08/12 10:08:27;;;;;;;9.88;5.28;;;25.60;65.30;;;;;;4980034;28;20471;-68
2021/08/12 10:10:53;;;;;;;7.57;5.43;;;25.70;61.20;;;;;;4982656;28;20406;-68
2021/08/12 10:13:19;;;;;;;12.48;5.85;;;25.80;62.30;;;;;;4982178;28;20030;-68
2021/08/12 10:15:49;;;;;;;8.07;5.40;;;25.90;59.80;;;;;;4980490;28;20037;-68
2021/08/12 10:18:18;;;;;;;11.55;5.55;;;26.10;63.10;;;;;;4980350;28;20027;-68
2021/08/12 10:20:44;;;;;;;7.03;5.30;;;26.00;61.40;;;;;;4983822;28;20854;-68
2021/08/12 10:23:10;;;;;;;6.95;5.57;;;26.00;61.80;;;;;;4984726;28;20026;-69
2021/08/12 10:25:36;;;;;;;6.43;5.18;;;26.00;59.90;;;;;;4980763;28;20454;-69
2021/08/12 10:28:07;;;;;;;8.57;5.40;;;26.10;59.40;;;;;;4981690;28;20545;-69
2021/08/12 10:30:33;;;;;;;6.10;4.93;;;26.10;61.80;;;;;;4979494;28;20048;-69
2021/08/12 10:33:01;;;;;;;9.80;5.00;;;26.20;60.20;;;;;;4980830;28;20058;-69
2021/08/12 10:35:30;;;;;;;8.98;5.40;;;26.30;60.60;;;;;;4979932;28;20065;-70
2021/08/12 10:37:56;;;;;;;8.15;5.80;;;26.40;60.20;;;;;;4979652;28;20093;-69
2021/08/12 10:40:31;;;;;;;6.18;5.07;;;26.40;57.40;;;;;;4998011;28;20384;-69
2021/08/12 10:42:58;;;;;;;7.38;5.00;;;26.30;58.10;;;;;;4980815;28;20093;-68
2021/08/12 10:45:26;;;;;;;7.18;5.43;;;26.40;59.10;;;;;;4980848;28;20539;-68
2021/08/12 10:47:54;;;;;;;9.07;5.70;;;26.40;60.30;;;;;;4981826;28;20039;-69
2021/08/12 10:50:23;;;;;;;6.50;5.03;;;26.40;62.10;;;;;;4980685;28;20038;-69
2021/08/12 10:53:04;;;;;;;8.68;6.57;;;26.40;57.50;;;;;;4979644;28;20045;-68
2021/08/12 10:55:31;;;;;;;6.53;5.07;;;26.40;60.60;;;;;;4981565;28;20088;-69
2021/08/12 10:58:18;;;;;;;7.57;5.53;;;26.60;59.80;;;;;;4981365;28;20412;-69
2021/08/12 11:01:01;;;;;;;12.50;5.80;;;26.70;58.30;;;;;;4990956;28;20038;-69
2021/08/12 11:03:33;;;;;;;7.70;4.95;;;26.70;55.00;;;;;;4991961;28;20019;-69
2021/08/12 11:06:19;;;;;;;8.68;5.75;;;26.80;54.90;;;;;;4988683;28;20026;-68
2021/08/12 11:08:54;;;;;;;7.93;5.15;;;26.70;55.20;;;;;;5003050;28;20038;-69
2021/08/12 11:11:25;;;;;;;13.43;5.60;;;26.50;55.10;;;;;;4991724;28;20034;-70
2021/08/12 11:13:52;;;;;;;16.55;6.07;;;26.60;57.00;;;;;;4984255;28;20015;-70
2021/08/12 11:16:19;;;;;;;99.88;78.38;;;26.70;57.80;;;;;;4986218;28;20105;-68
2021/08/12 11:18:53;;;;;;;14.68;11.18;;;26.80;58.90;;;;;;4993304;28;20471;-69
2021/08/12 11:21:33;;;;;;;7.65;6.25;;;27.00;57.60;;;;;;4987560;28;20034;-69
2021/08/12 11:24:03;;;;;;;8.52;6.03;;;27.00;55.80;;;;;;4993047;28;20026;-68
2021/08/12 11:26:41;;;;;;;7.93;5.88;;;27.10;59.50;;;;;;4992060;28;20045;-69
2021/08/12 11:32:02;;;;;;;7.60;5.32;;;27.10;56.40;;;;;;4986507;28;20035;-69
2021/08/12 11:34:37;;;;;;;6.72;5.75;;;27.00;56.40;;;;;;4995608;28;20417;-69
2021/08/12 11:37:35;;;;;;;5.72;5.15;;;27.00;58.40;;;;;;4992160;28;20416;-69
2021/08/12 11:40:04;;;;;;;6.30;5.35;;;27.10;56.60;;;;;;4979612;28;20053;-69
2021/08/12 11:42:44;;;;;;;9.38;5.82;;;27.10;55.60;;;;;;4986555;28;20030;-69
2021/08/12 11:45:21;;;;;;;7.03;5.80;;;27.10;56.30;;;;;;4988203;28;20089;-69
2021/08/12 11:47:56;;;;;;;15.70;6.18;;;27.10;55.10;;;;;;4992117;28;20386;-68
2021/08/12 11:50:26;;;;;;;6.97;6.28;;;27.10;53.30;;;;;;4986741;28;20035;-69
2021/08/12 11:52:52;;;;;;;9.10;5.95;;;27.10;55.00;;;;;;4991791;28;20034;-69
2021/08/12 11:55:23;;;;;;;9.40;6.15;;;27.10;55.50;;;;;;4989891;28;20030;-69
2021/08/12 11:57:54;;;;;;;10.35;6.25;;;27.10;55.70;;;;;;4992696;28;20054;-69
2021/08/12 12:00:30;;;;;;;8.90;6.10;;;27.10;56.60;;;;;;4976709;28;20380;-68
2021/08/12 12:03:00;;;;;;;8.38;6.25;;;27.00;56.60;;;;;;4980161;28;20050;-69
2021/08/12 12:05:28;;;;;;;6.95;5.28;;;27.00;57.10;;;;;;4980856;28;20113;-69
2021/08/12 12:07:56;;;;;;;7.25;5.90;;;27.10;57.30;;;;;;4980579;28;20050;-68
2021/08/12 12:10:27;;;;;;;7.10;5.20;;;27.10;57.40;;;;;;4979738;28;20076;-68
2021/08/12 12:12:54;;;;;;;9.05;5.47;;;27.20;55.20;;;;;;4979654;28;20438;-69
2021/08/12 12:15:31;;;;;;;10.15;6.03;;;27.20;55.40;;;;;;4980230;28;20030;-69
2021/08/12 12:17:56;;;;;;;7.10;5.23;;;27.30;56.90;;;;;;4977897;28;20054;-69
2021/08/12 12:20:24;;;;;;;6.22;4.90;;;27.20;58.20;;;;;;4980985;28;20478;-69
2021/08/12 12:23:02;;;;;;;7.00;5.38;;;27.30;56.50;;;;;;4979292;28;20034;-69
2021/08/12 12:25:29;;;;;;;7.75;5.40;;;27.20;57.10;;;;;;4979934;28;20033;-69
2021/08/12 12:27:57;;;;;;;9.68;5.63;;;27.30;56.10;;;;;;4980700;28;20022;-69
2021/08/12 12:30:23;;;;;;;;;;;27.30;56.30;;;;;;4978481;28;20062;-69
2021/08/12 12:33:07;;;;;;;10.82;5.55;;;27.30;54.80;;;;;;4980469;28;19967;-69
2021/08/12 12:35:39;;;;;;;6.97;5.55;;;27.30;53.70;;;;;;4979009;28;20026;-69
2021/08/12 12:38:07;;;;;;;7.38;5.20;;;27.20;54.90;;;;;;4980925;28;20034;-69
2021/08/12 12:40:35;;;;;;;7.53;5.70;;;27.20;55.60;;;;;;4979876;28;20022;-69
2021/08/12 12:43:02;;;;;;;8.82;5.45;;;27.20;55.10;;;;;;4978142;28;20116;-69
2021/08/12 12:45:28;;;;;;;7.03;5.40;;;27.20;57.30;;;;;;4978720;28;20058;-68
2021/08/12 12:48:09;;;;;;;8.43;5.43;;;27.20;56.10;;;;;;4980230;28;20285;-69
2021/08/12 12:51:04;;;;;;;10.50;5.30;;;27.20;56.00;;;;;;4980413;28;20030;-69
2021/08/12 12:53:41;;;;;;;6.82;5.28;;;27.20;54.90;;;;;;4979649;28;20038;-69
2021/08/12 12:56:19;;;;;;;8.95;5.53;;;27.20;55.90;;;;;;4980620;28;20018;-68